Terminal Aerodrome Forecast
Issued by NWS Atlanta, GA

Home | Current Version | Previous Version | Text Only | Print | Product List | Glossary On
Versions: 1 2 3 4 5 6 7 8 9 10 11 12 13 14 15 16 17 18 19 20 21 22 23 24 25 26
000
FTAK31 PAJN 201344 AAA
TAFAHN
TAF AMD
PAHN 201344Z 2014/2112 30011KT 6SM HZ SCT015 OVC040
      TEMPO 2014/2017 31010G18KT 3SM HZ BKN006 OVC015
     FM202100 30015KT P6SM SCT025 OVC040 PROB30 2023/2102 4SM -SHSN
      OVC025
     FM210400 31015G22KT P6SM OVC025
      AMD LTD TO CLD VIS AND WIND=

USA.gov is the U.S. government's official web portal to all federal, state and local government web resources and services.